Time;durP1;ratioP1;P1;durP2;ratioP2;P2;SDS_P1;SDS_P2;PMS_P1;PMS_P2;Temp;Humidity;BMP_temperature;BMP_pressure;BME280_temperature;BME280_humidity;BME280_pressure;Samples;Min_cycle;Max_cycle;Signal;HPM_P1;HPM_P2
2021/06/02 00:02:01;;;;;;;4.35;1.87;;;;;;;15.02;78.15;100398.95;1707568;84;21854;-61
2021/06/02 00:04:36;;;;;;;3.15;2.15;;;;;;;15.04;78.07;100409.67;1708146;84;21664;-61
2021/06/02 00:07:11;;;;;;;7.30;2.02;;;;;;;15.07;77.90;100409.84;1707393;84;21789;-61
2021/06/02 00:09:45;;;;;;;4.92;1.75;;;;;;;15.10;77.76;100416.09;1707843;84;21251;-61
2021/06/02 00:12:18;;;;;;;;;;;;;;;15.09;77.69;100419.25;1708941;83;21159;-63
2021/06/02 00:14:52;;;;;;;3.80;1.80;;;;;;;15.10;77.72;100418.24;1706516;84;20219;-62
2021/06/02 00:17:26;;;;;;;4.42;1.90;;;;;;;15.08;77.74;100408.84;1706966;84;21230;-60
2021/06/02 00:20:00;;;;;;;5.75;2.02;;;;;;;15.07;77.49;100412.48;1708163;84;21838;-62
2021/06/02 00:22:32;;;;;;;4.92;2.02;;;;;;;15.04;77.47;100404.89;1707534;84;21861;-61
2021/06/02 00:25:07;;;;;;;5.17;2.17;;;;;;;15.02;77.39;100399.75;1708143;84;21249;-63
2021/06/02 00:27:41;;;;;;;5.70;2.42;;;;;;;15.00;77.50;100395.66;1706901;84;21295;-61
2021/06/02 00:30:15;;;;;;;4.30;2.10;;;;;;;14.96;77.49;100389.87;1708117;84;21311;-62
2021/06/02 00:32:47;;;;;;;;;;;;;;;14.95;77.49;100400.58;1709699;84;21298;-61
2021/06/02 00:35:21;;;;;;;5.00;2.20;;;;;;;14.91;77.46;100399.23;1699645;84;20239;-61
2021/06/02 00:37:54;;;;;;;5.65;1.95;;;;;;;14.85;77.72;100394.13;1712249;84;21227;-61
2021/06/02 00:40:49;;;;;;;3.90;1.77;;;;;;;14.81;77.91;100390.97;1712937;84;21251;-60
2021/06/02 00:43:22;;;;;;;5.40;1.70;;;;;;;14.79;78.11;100390.80;1712007;84;21291;-62
2021/06/02 00:45:57;;;;;;;12.50;2.17;;;;;;;14.76;78.23;100389.30;1712998;84;21252;-61
2021/06/02 00:48:30;;;;;;;1.85;1.62;;;;;;;14.75;78.23;100386.36;1711969;84;21157;-62
2021/06/02 00:51:04;;;;;;;3.80;2.15;;;;;;;14.73;78.36;100380.42;1713179;84;21797;-63
2021/06/02 00:53:37;;;;;;;2.62;1.70;;;;;;;14.69;78.31;100375.11;1711885;84;21357;-61
2021/06/02 00:56:10;;;;;;;2.63;1.70;;;;;;;14.67;78.41;100368.35;1713235;84;21294;-63
2021/06/02 00:58:48;;;;;;;3.15;1.92;;;;;;;14.66;78.39;100373.31;1711451;84;21770;-62
2021/06/02 01:01:21;;;;;;;5.75;2.08;;;;;;;14.65;78.40;100367.20;1712960;84;21794;-61
2021/06/02 01:03:57;;;;;;;6.97;2.17;;;;;;;14.65;78.45;100372.96;1711385;84;22125;-60
2021/06/02 01:06:33;;;;;;;3.42;1.50;;;;;;;14.65;78.56;100371.64;1712975;84;21262;-62
2021/06/02 01:09:07;;;;;;;9.30;2.30;;;;;;;14.66;78.42;100368.84;1711322;84;21206;-62
2021/06/02 01:11:42;;;;;;;3.52;1.98;;;;;;;14.67;78.35;100362.59;1693822;84;21140;-61
2021/06/02 01:14:16;;;;;;;4.87;2.35;;;;;;;14.67;78.20;100359.13;1692326;84;21326;-62
2021/06/02 01:16:50;;;;;;;10.65;2.95;;;;;;;14.65;78.16;100355.84;1711148;84;21155;-60
2021/06/02 01:19:25;;;;;;;3.83;1.90;;;;;;;14.62;78.13;100358.78;1711778;84;21295;-62
2021/06/02 01:22:02;;;;;;;;;;;;;;;14.60;78.18;100355.48;1715564;84;21306;-61
2021/06/02 01:24:35;;;;;;;3.52;1.87;;;;;;;14.55;78.13;100355.97;1711238;83;20227;-61
2021/06/02 01:27:11;;;;;;;3.42;2.20;;;;;;;14.50;78.27;100362.20;1711014;82;21211;-61
2021/06/02 01:29:50;;;;;;;3.52;1.70;;;;;;;14.52;78.48;100358.91;1710042;82;21338;-62
2021/06/02 01:33:04;;;;;;;3.62;1.80;;;;;;;14.53;78.56;100357.94;1714537;83;21260;-61
2021/06/02 01:35:48;;;;;;;4.60;1.87;;;;;;;14.55;78.50;100361.72;1715744;82;21275;-62
2021/06/02 01:39:03;;;;;;;3.83;2.20;;;;;;;14.53;78.47;100356.62;1717269;82;21318;-61
2021/06/02 01:42:19;;;;;;;5.78;2.27;;;;;;;14.53;78.59;100359.73;1724464;82;21168;-63
2021/06/02 01:45:19;;;;;;;3.12;1.80;;;;;;;14.53;78.75;100363.69;1692807;84;22181;-61
2021/06/02 01:48:35;;;;;;;5.58;2.27;;;;;;;14.57;78.76;100361.06;1626399;87;21634;-62
2021/06/02 01:51:21;;;;;;;4.10;2.20;;;;;;;14.60;78.65;100357.63;1679195;84;21278;-61
2021/06/02 01:54:52;;;;;;;6.20;2.12;;;;;;;14.61;78.56;100347.92;1699311;84;21305;-60
2021/06/02 01:57:46;;;;;;;3.77;1.95;;;;;;;14.62;78.62;100343.80;1699651;84;21313;-61
2021/06/02 02:00:57;;;;;;;2.98;2.00;;;;;;;14.63;78.57;100345.47;1684988;83;21272;-62
2021/06/02 02:03:53;;;;;;;5.97;2.37;;;;;;;14.66;78.57;100339.05;1691561;84;21646;-61
2021/06/02 02:07:16;;;;;;;8.38;2.20;;;;;;;14.65;78.50;100326.36;1708051;84;21796;-62
2021/06/02 02:10:14;;;;;;;9.18;2.00;;;;;;;14.69;78.58;100333.44;1706913;84;21333;-60
2021/06/02 02:13:13;;;;;;;2.98;1.72;;;;;;;14.72;78.53;100325.22;1707954;84;21156;-60
2021/06/02 02:16:43;;;;;;;2.83;1.98;;;;;;;14.77;78.60;100325.56;1703638;83;21536;-61
2021/06/02 02:19:43;;;;;;;4.92;2.27;;;;;;;14.84;78.64;100332.67;1702365;84;21205;-63
2021/06/02 02:22:39;;;;;;;4.33;2.02;;;;;;;14.92;78.61;100325.28;1704214;84;21156;-63
2021/06/02 02:25:15;;;;;;;4.90;2.20;;;;;;;14.95;78.36;100331.52;1702762;84;21234;-63
2021/06/02 02:28:04;;;;;;;4.70;1.92;;;;;;;14.98;78.32;100324.63;1705469;84;21305;-64
2021/06/02 02:31:23;;;;;;;2.87;2.30;;;;;;;15.05;78.31;100324.30;1703291;84;21222;-62
2021/06/02 02:34:28;;;;;;;2.92;1.98;;;;;;;15.12;78.05;100328.42;1688244;84;22115;-62
2021/06/02 02:37:09;;;;;;;4.00;1.90;;;;;;;15.16;78.09;100324.48;1703862;84;22121;-62
2021/06/02 02:40:06;;;;;;;6.03;2.22;;;;;;;15.20;78.16;100325.80;1700724;84;21341;-63
2021/06/02 02:42:51;;;;;;;4.28;2.12;;;;;;;15.24;78.20;100327.94;1696822;84;21203;-61
2021/06/02 02:45:36;;;;;;;4.83;2.05;;;;;;;15.30;78.11;100328.63;1695853;84;21552;-61
2021/06/02 02:48:32;;;;;;;4.20;2.22;;;;;;;15.35;77.88;100331.59;1697255;84;21187;-60
2021/06/02 02:51:25;;;;;;;2.90;2.22;;;;;;;15.38;77.83;100330.44;1688703;83;21494;-61
2021/06/02 02:54:12;;;;;;;6.53;2.33;;;;;;;15.41;77.74;100326.13;1667658;85;22136;-62
2021/06/02 02:56:53;;;;;;;3.17;1.95;;;;;;;15.42;78.00;100314.11;1682451;83;22147;-62
2021/06/02 02:59:41;;;;;;;4.78;2.60;;;;;;;15.45;77.94;100305.88;1679214;85;21563;-62
2021/06/02 03:02:23;;;;;;;3.40;1.92;;;;;;;15.50;78.02;100308.02;1679984;85;21180;-61
2021/06/02 03:04:58;;;;;;;5.62;2.45;;;;;;;15.51;78.00;100309.67;1678939;85;21346;-61
2021/06/02 03:07:33;;;;;;;5.67;2.37;;;;;;;15.54;77.86;100296.65;1682119;85;22139;-62
2021/06/02 03:10:17;;;;;;;3.85;2.33;;;;;;;15.54;78.02;100299.28;1678840;85;21467;-63
2021/06/02 03:13:19;;;;;;;6.15;2.37;;;;;;;15.60;78.07;100307.84;1680274;85;21466;-64
2021/06/02 03:15:59;;;;;;;5.55;2.47;;;;;;;15.63;78.08;100312.30;1683664;85;21180;-62
2021/06/02 03:18:55;;;;;;;3.30;2.10;;;;;;;15.64;77.96;100314.45;1685070;85;21512;-62
2021/06/02 03:21:45;;;;;;;5.12;2.20;;;;;;;15.68;78.15;100312.63;1685445;85;21192;-61
2021/06/02 03:24:58;;;;;;;5.35;2.52;;;;;;;15.74;77.98;100308.51;1684681;85;21338;-62
2021/06/02 03:27:58;;;;;;;5.67;2.37;;;;;;;15.78;78.02;100307.17;1685119;85;21306;-62
2021/06/02 03:30:44;;;;;;;5.62;2.10;;;;;;;15.84;77.95;100313.08;1683854;85;21514;-62
2021/06/02 03:33:48;;;;;;;4.58;2.27;;;;;;;15.84;78.06;100324.96;1685127;85;22011;-61
2021/06/02 03:36:57;;;;;;;4.83;1.90;;;;;;;15.87;78.08;100330.75;1684943;85;21331;-60
2021/06/02 03:39:51;;;;;;;5.10;2.50;;;;;;;15.89;77.93;100327.92;1687157;85;22141;-62
2021/06/02 03:42:50;;;;;;;4.97;2.15;;;;;;;15.91;77.93;100329.41;1687435;85;21168;-61
2021/06/02 03:45:41;;;;;;;4.50;2.22;;;;;;;15.95;77.89;100324.11;1687380;85;21299;-62
2021/06/02 03:48:44;;;;;;;2.87;2.20;;;;;;;16.01;77.79;100327.41;1685093;85;21317;-63
2021/06/02 03:51:38;;;;;;;4.83;2.33;;;;;;;16.05;77.53;100322.59;1683796;83;21244;-63
2021/06/02 03:54:31;;;;;;;5.05;2.12;;;;;;;16.09;77.36;100329.21;1704832;84;22522;-63
2021/06/02 03:57:18;;;;;;;4.90;1.98;;;;;;;16.12;77.20;100327.56;1710383;82;21253;-63
2021/06/02 04:00:09;;;;;;;5.12;2.10;;;;;;;16.16;77.04;100325.73;1696982;82;21395;-62
2021/06/02 04:02:58;;;;;;;12.35;2.50;;;;;;;16.21;77.00;100316.46;1668638;85;21226;-61
2021/06/02 04:06:02;;;;;;;3.77;2.08;;;;;;;16.23;76.76;100317.94;1708939;84;21331;-60
2021/06/02 04:08:55;;;;;;;;;;;;;;;16.22;76.72;100320.73;1712464;84;21207;-61
2021/06/02 04:11:49;;;;;;;4.10;2.00;;;;;;;16.24;76.76;100316.92;1708386;84;20275;-62
2021/06/02 04:14:35;;;;;;;5.72;1.82;;;;;;;16.26;76.67;100311.00;1708416;84;21310;-60
2021/06/02 04:17:10;;;;;;;3.95;1.90;;;;;;;16.29;76.62;100309.31;1709920;84;21626;-62
2021/06/02 04:19:43;;;;;;;3.87;2.60;;;;;;;16.35;76.52;100309.97;1710033;84;21587;-62
2021/06/02 04:22:16;;;;;;;;;;;;;;;16.39;76.35;100303.33;1710933;84;21251;-62
2021/06/02 04:24:49;;;;;;;2.37;1.70;;;;;;;16.42;76.02;100291.11;1709780;84;20212;-64
2021/06/02 04:27:22;;;;;;;2.55;1.87;;;;;;;16.41;75.92;100297.38;1712073;82;21344;-63
2021/06/02 04:29:55;;;;;;;2.70;1.77;;;;;;;16.43;75.66;100293.26;1714057;83;21225;-64
2021/06/02 04:32:29;;;;;;;3.15;2.22;;;;;;;16.40;75.59;100293.10;1663468;83;21427;-63
2021/06/02 04:35:01;;;;;;;3.10;1.80;;;;;;;16.39;75.57;100300.69;1713098;83;21607;-63
2021/06/02 04:37:37;;;;;;;2.73;1.60;;;;;;;16.37;75.76;100301.86;1713165;83;22156;-62
2021/06/02 04:40:11;;;;;;;3.47;1.82;;;;;;;16.37;75.85;100297.41;1702725;82;21571;-64
2021/06/02 04:42:44;;;;;;;4.53;2.52;;;;;;;16.37;75.81;100300.53;1656647;86;21569;-62
2021/06/02 04:45:22;;;;;;;3.62;1.85;;;;;;;16.38;75.85;100299.55;1704348;82;21285;-63
2021/06/02 04:47:56;;;;;;;3.52;1.95;;;;;;;16.38;75.79;100297.74;1709821;84;21160;-62
2021/06/02 05:03:22;;;;;;;5.30;1.87;;;;;;;16.37;75.70;100313.75;1708830;84;21949;-63
2021/06/02 05:06:21;;;;;;;4.30;2.02;;;;;;;16.32;75.85;100308.98;1709033;84;21342;-61
2021/06/02 05:13:43;;;;;;;10.38;1.95;;;;;;;16.31;76.03;100301.23;1708146;84;21442;-59
2021/06/02 05:24:04;;;;;;;5.33;2.20;;;;;;;16.36;76.51;100303.67;1709577;84;21354;-59
2021/06/02 05:27:14;;;;;;;3.37;2.05;;;;;;;16.39;76.36;100303.33;1709052;84;21662;-58
2021/06/02 05:30:26;;;;;;;4.03;2.10;;;;;;;16.40;76.36;100298.39;1709580;84;21311;-58
2021/06/02 05:33:34;;;;;;;5.50;2.00;;;;;;;16.44;76.43;100296.20;1708431;84;21445;-58
2021/06/02 05:40:57;;;;;;;5.97;2.42;;;;;;;16.57;76.11;100289.91;1710035;84;21965;-61
2021/06/02 05:43:51;;;;;;;3.12;2.10;;;;;;;16.64;75.94;100271.87;1708582;84;21295;-60
2021/06/02 05:51:16;;;;;;;5.35;2.02;;;;;;;16.79;75.72;100260.84;1710142;84;21135;-61
2021/06/02 05:54:11;;;;;;;;;;;;;;;16.96;75.42;100256.27;1711934;84;21191;-60
2021/06/02 05:57:25;;;;;;;6.17;2.08;;;;;;;17.01;74.92;100263.66;1695464;83;20211;-59
2021/06/02 06:00:40;;;;;;;4.05;2.05;;;;;;;17.02;74.68;100248.13;1709969;84;22038;-59
2021/06/02 06:03:33;;;;;;;4.37;2.00;;;;;;;17.04;74.52;100264.14;1708557;84;21310;-59
2021/06/02 06:06:46;;;;;;;2.87;1.90;;;;;;;17.04;74.39;100269.43;1708695;84;21330;-60
2021/06/02 06:09:55;;;;;;;4.78;2.22;;;;;;;17.04;74.36;100262.82;1716783;83;22080;-60
2021/06/02 06:12:58;;;;;;;4.65;2.35;;;;;;;17.03;74.49;100261.16;1699481;83;21227;-59
2021/06/02 06:15:57;;;;;;;5.25;2.40;;;;;;;17.10;74.34;100271.88;1709888;84;21206;-63
2021/06/02 06:19:08;;;;;;;2.75;1.90;;;;;;;17.16;74.01;100265.38;1708571;84;21337;-59
2021/06/02 06:22:40;;;;;;;3.37;2.33;;;;;;;17.18;73.53;100261.21;1709597;84;21595;-61
2021/06/02 06:25:37;;;;;;;5.40;2.35;;;;;;;17.13;73.27;100257.78;1708429;84;21200;-59
2021/06/02 06:28:41;;;;;;;4.37;2.10;;;;;;;17.05;73.26;100261.00;1708620;84;21423;-62
2021/06/02 06:31:25;;;;;;;3.35;2.55;;;;;;;17.03;73.41;100266.98;1709680;84;21511;-62
2021/06/02 06:33:57;;;;;;;;;;;;;;;16.97;73.22;100267.66;1710533;83;21314;-61
2021/06/02 06:36:30;;;;;;;7.20;2.25;;;;;;;16.91;73.61;100271.03;1709787;84;20290;-62
2021/06/02 06:39:32;;;;;;;4.00;2.33;;;;;;;16.91;74.33;100275.00;1710571;84;21298;-62
2021/06/02 06:42:06;;;;;;;4.75;2.70;;;;;;;16.91;74.33;100275.00;1709526;84;21474;-61
2021/06/02 06:44:40;;;;;;;7.15;2.50;;;;;;;16.95;74.32;100277.60;1709872;84;21193;-60
2021/06/02 06:47:14;;;;;;;;;;;;;;;17.01;74.46;100278.20;1712319;84;21184;-60
2021/06/02 06:49:50;;;;;;;3.37;2.92;;;;;;;17.08;74.31;100277.33;1710114;84;20650;-61
2021/06/02 06:52:27;;;;;;;4.80;2.62;;;;;;;17.09;73.92;100279.48;1709510;84;22112;-64
2021/06/02 06:55:01;;;;;;;5.45;2.90;;;;;;;17.08;73.97;100284.44;1709731;84;21362;-61
2021/06/02 06:57:37;;;;;;;5.95;2.70;;;;;;;17.05;74.02;100281.64;1700503;83;22016;-58
2021/06/02 07:00:12;;;;;;;8.65;2.85;;;;;;;17.05;74.08;100288.78;1698397;83;21509;-64
2021/06/02 07:02:46;;;;;;;6.12;2.60;;;;;;;17.02;74.13;100297.05;1698951;84;21205;-64
2021/06/02 07:05:22;;;;;;;4.90;2.47;;;;;;;16.98;74.25;100297.09;1699505;84;21645;-64
2021/06/02 07:07:55;;;;;;;5.35;2.92;;;;;;;16.94;74.42;100295.78;1698933;84;21294;-65
2021/06/02 07:10:29;;;;;;;8.90;3.10;;;;;;;16.91;74.53;100298.80;1699546;84;21638;-63
2021/06/02 07:13:08;;;;;;;5.60;2.50;;;;;;;16.87;74.62;100319.47;1698862;84;21342;-63
2021/06/02 07:15:43;;;;;;;4.92;2.80;;;;;;;16.82;74.75;100340.31;1698510;83;22078;-57
2021/06/02 07:18:22;;;;;;;4.85;2.65;;;;;;;16.76;75.07;100351.59;1699170;84;21302;-60
2021/06/02 07:20:56;;;;;;;7.50;2.80;;;;;;;16.72;75.40;100352.42;1699128;84;21353;-61
2021/06/02 07:23:31;;;;;;;5.60;2.92;;;;;;;16.70;75.66;100346.50;1698585;84;21213;-60
2021/06/02 07:26:05;;;;;;;11.50;3.50;;;;;;;16.71;75.81;100337.58;1679955;84;21335;-65
2021/06/02 07:28:41;;;;;;;7.75;2.98;;;;;;;16.78;76.37;100339.02;1695753;84;21204;-60
2021/06/02 07:31:13;;;;;;;;;;;;;;;16.79;76.92;100330.91;1701687;84;21311;-61
2021/06/02 07:33:48;;;;;;;4.80;3.15;;;;;;;16.80;77.53;100332.56;1698718;84;20726;-60
2021/06/02 07:36:22;;;;;;;9.35;3.65;;;;;;;16.79;78.15;100316.36;1699459;84;21536;-61
2021/06/02 07:38:56;;;;;;;6.72;3.58;;;;;;;16.84;78.64;100314.02;1698517;84;21326;-59
2021/06/02 07:41:35;;;;;;;11.33;3.55;;;;;;;16.88;78.98;100313.19;1699677;84;21212;-62
2021/06/02 07:44:09;;;;;;;4.15;3.12;;;;;;;16.91;79.08;100312.02;1698457;84;21978;-60
2021/06/02 07:46:49;;;;;;;3.80;3.02;;;;;;;16.95;79.43;100308.84;1699133;84;21177;-60
2021/06/02 07:49:26;;;;;;;3.35;2.62;;;;;;;17.00;79.54;100306.50;1699415;84;21197;-59
2021/06/02 07:56:10;;;;;;;3.70;2.98;;;;;;;17.10;79.78;100300.98;1699383;83;21259;-61
2021/06/02 07:58:43;;;;;;;6.67;3.42;;;;;;;17.16;79.97;100300.25;1699061;84;21214;-59
2021/06/02 08:01:18;;;;;;;4.08;2.70;;;;;;;17.18;79.97;100299.08;1700485;84;21259;-59
2021/06/02 08:03:51;;;;;;;9.33;3.05;;;;;;;17.24;80.02;100297.55;1701429;84;21219;-58
2021/06/02 08:06:26;;;;;;;5.28;3.02;;;;;;;17.27;79.97;100291.89;1701902;84;21518;-60
2021/06/02 08:09:01;;;;;;;6.22;3.37;;;;;;;17.28;79.93;100287.76;1701318;84;21197;-59
2021/06/02 08:11:40;;;;;;;5.55;2.95;;;;;;;17.33;79.96;100288.55;1700055;83;21926;-59
2021/06/02 08:14:16;;;;;;;4.20;3.00;;;;;;;17.39;79.77;100286.49;1701330;84;21252;-60
2021/06/02 08:21:01;;;;;;;5.80;2.98;;;;;;;17.41;79.35;100274.73;1701977;84;21947;-62
2021/06/02 08:23:35;;;;;;;3.83;2.80;;;;;;;17.46;79.58;100277.66;1702707;84;21350;-64
2021/06/02 08:26:09;;;;;;;9.60;3.35;;;;;;;17.46;79.36;100270.22;1701839;84;21204;-59
2021/06/02 08:28:43;;;;;;;5.12;2.72;;;;;;;17.45;79.45;100268.59;1701520;84;21999;-66
2021/06/02 08:31:16;;;;;;;7.28;2.85;;;;;;;17.50;79.59;100264.37;1701677;84;21200;-59
2021/06/02 08:33:51;;;;;;;7.95;3.50;;;;;;;17.55;79.38;100265.22;1701488;84;21494;-60
2021/06/02 08:36:25;;;;;;;7.65;3.10;;;;;;;17.58;79.46;100262.72;1701657;84;21502;-60
2021/06/02 08:38:58;;;;;;;4.00;3.02;;;;;;;17.62;79.41;100254.72;1701680;84;21310;-59
2021/06/02 08:41:32;;;;;;;5.65;3.12;;;;;;;17.64;79.20;100250.89;1673949;84;21526;-60
2021/06/02 08:44:07;;;;;;;6.15;3.00;;;;;;;17.62;79.31;100248.11;1701782;84;21232;-59
2021/06/02 08:50:55;;;;;;;5.12;3.67;;;;;;;17.62;78.96;100237.02;1700473;84;21192;-61
2021/06/02 08:57:43;;;;;;;5.75;3.20;;;;;;;17.58;77.89;100235.72;1700606;83;22085;-58
2021/06/02 09:04:13;;;;;;;8.43;3.55;;;;;;;17.58;78.28;100224.34;1702290;83;21175;-60
2021/06/02 09:06:48;;;;;;;5.10;3.60;;;;;;;17.69;78.77;100233.14;1700060;83;21188;-60
2021/06/02 09:09:21;;;;;;;5.40;3.37;;;;;;;17.77;78.68;100221.94;1701520;84;21180;-60
2021/06/02 09:11:56;;;;;;;4.03;3.02;;;;;;;17.87;78.33;100219.84;1700224;83;21988;-61
2021/06/02 09:14:37;;;;;;;8.03;3.72;;;;;;;17.95;78.08;100221.08;1701479;84;21450;-63
2021/06/02 09:17:18;;;;;;;6.97;3.37;;;;;;;18.02;77.80;100219.84;1701653;84;21192;-61
2021/06/02 09:19:49;;;;;;;9.78;3.08;;;;;;;18.09;77.48;100216.77;1701680;84;21227;-62
2021/06/02 09:22:24;;;;;;;5.10;3.25;;;;;;;18.13;76.74;100211.41;1701679;84;22088;-61
2021/06/02 09:25:02;;;;;;;9.90;3.27;;;;;;;18.13;76.26;100224.16;1701466;84;21203;-62
2021/06/02 09:27:54;;;;;;;8.03;3.65;;;;;;;18.13;75.67;100224.65;1700116;83;21219;-61
2021/06/02 09:30:39;;;;;;;6.08;3.40;;;;;;;18.06;75.75;100220.60;1701297;84;22133;-63
2021/06/02 09:33:08;;;;;;;5.12;3.50;;;;;;;18.01;75.66;100225.62;1699949;83;21208;-60
2021/06/02 09:35:45;;;;;;;5.70;3.58;;;;;;;17.94;76.16;100226.05;1681315;84;21322;-59
2021/06/02 09:38:28;;;;;;;5.55;3.33;;;;;;;17.88;76.58;100224.64;1701739;84;21196;-62
2021/06/02 09:41:01;;;;;;;6.30;2.73;;;;;;;17.83;76.95;100227.02;1702014;84;21188;-60
2021/06/02 09:43:35;;;;;;;6.28;3.08;;;;;;;17.82;77.27;100222.22;1702747;84;21185;-60
2021/06/02 09:46:18;;;;;;;7.15;2.85;;;;;;;17.88;76.98;100215.38;1700699;84;22196;-62
2021/06/02 09:49:00;;;;;;;3.72;2.87;;;;;;;17.88;76.82;100226.80;1701695;84;21200;-62
2021/06/02 09:51:39;;;;;;;5.55;3.00;;;;;;;17.91;76.46;100222.44;1700823;84;21364;-60
2021/06/02 09:54:13;;;;;;;4.97;3.20;;;;;;;17.93;76.10;100224.92;1701861;84;21248;-62
2021/06/02 09:56:51;;;;;;;6.00;3.12;;;;;;;17.95;75.69;100228.20;1701140;83;21216;-60
2021/06/02 09:59:25;;;;;;;5.12;3.10;;;;;;;17.95;75.68;100233.50;1701774;84;22103;-59
2021/06/02 10:06:15;;;;;;;8.63;3.70;;;;;;;17.97;74.91;100231.48;1704427;84;21191;-61
2021/06/02 10:08:56;;;;;;;5.08;2.75;;;;;;;17.97;74.57;100241.58;1709815;84;21303;-60
2021/06/02 10:11:33;;;;;;;8.23;2.90;;;;;;;17.99;74.24;100238.73;1690483;84;21191;-61
2021/06/02 10:14:12;;;;;;;4.37;2.70;;;;;;;18.00;73.45;100243.87;1688146;84;21475;-60
2021/06/02 10:21:06;;;;;;;4.75;3.22;;;;;;;18.09;72.90;100226.03;1709401;84;21503;-60
2021/06/02 10:23:46;;;;;;;6.58;2.98;;;;;;;18.21;72.72;100239.63;1708085;83;21196;-64
2021/06/02 10:26:21;;;;;;;5.80;2.72;;;;;;;18.32;72.75;100237.31;1691067;84;21333;-62
2021/06/02 10:33:07;;;;;;;3.35;2.52;;;;;;;18.56;72.29;100238.84;1709751;84;21169;-63
2021/06/02 10:35:42;;;;;;;4.75;3.00;;;;;;;18.63;71.60;100235.75;1709674;84;21326;-65
2021/06/02 10:38:22;;;;;;;5.53;2.80;;;;;;;18.70;70.02;100237.46;1709842;84;21302;-66
2021/06/02 10:40:55;;;;;;;4.12;3.35;;;;;;;18.73;69.20;100247.70;1691680;84;21398;-63
2021/06/02 10:43:35;;;;;;;11.93;2.67;;;;;;;18.78;69.94;100243.98;1711370;84;21367;-63
2021/06/02 10:46:16;;;;;;;9.20;3.20;;;;;;;18.82;69.28;100247.89;1709545;84;21394;-62
2021/06/02 10:49:02;;;;;;;5.03;2.60;;;;;;;18.89;69.38;100249.80;1708552;84;22068;-62
2021/06/02 10:51:41;;;;;;;4.28;2.90;;;;;;;18.91;68.63;100254.41;1709401;84;21235;-61
2021/06/02 10:54:21;;;;;;;5.55;2.62;;;;;;;18.83;68.71;100248.72;1709893;84;21203;-61
2021/06/02 10:57:04;;;;;;;7.65;3.00;;;;;;;18.75;68.79;100256.28;1708250;82;21200;-61
2021/06/02 10:59:45;;;;;;;5.53;3.12;;;;;;;18.68;69.77;100261.20;1708345;83;21279;-62
2021/06/02 11:02:31;;;;;;;4.05;2.67;;;;;;;18.61;70.04;100264.28;1709259;84;21361;-67
2021/06/02 11:05:14;;;;;;;3.83;2.67;;;;;;;18.52;70.08;100272.04;1709824;84;21195;-62
2021/06/02 11:07:52;;;;;;;11.65;2.77;;;;;;;18.44;70.58;100259.69;1703408;83;21279;-60
2021/06/02 11:14:23;;;;;;;5.93;2.73;;;;;;;18.48;71.24;100258.85;1707266;83;21450;-64
2021/06/02 11:17:12;;;;;;;6.10;2.92;;;;;;;18.57;70.09;100261.70;1700099;83;21268;-62
2021/06/02 11:19:55;;;;;;;6.47;2.52;;;;;;;18.56;69.52;100258.22;1701338;83;21200;-65
2021/06/02 11:22:35;;;;;;;5.47;3.00;;;;;;;18.53;69.28;100254.61;1700194;83;21498;-63
2021/06/02 11:25:23;;;;;;;4.40;2.22;;;;;;;18.53;69.51;100258.59;1700448;84;21329;-63
2021/06/02 11:27:58;;;;;;;4.00;2.40;;;;;;;18.52;69.27;100258.29;1700727;84;21493;-63
2021/06/02 11:30:33;;;;;;;4.67;2.25;;;;;;;18.48;69.42;100257.53;1701473;84;21310;-61
2021/06/02 11:33:12;;;;;;;6.95;2.77;;;;;;;18.43;69.45;100273.97;1700952;84;21211;-63
2021/06/02 11:35:58;;;;;;;4.28;2.30;;;;;;;18.35;69.37;100266.11;1702790;84;21533;-66
2021/06/02 11:38:34;;;;;;;3.58;2.45;;;;;;;18.26;69.86;100271.20;1700608;84;21272;-65
2021/06/02 11:41:11;;;;;;;4.60;2.35;;;;;;;18.16;70.66;100268.84;1701727;84;21173;-62
2021/06/02 11:43:47;;;;;;;5.17;2.77;;;;;;;18.07;71.18;100265.97;1698200;84;21196;-60
2021/06/02 11:46:21;;;;;;;6.50;2.72;;;;;;;17.98;71.92;100264.92;1701783;84;21161;-66
2021/06/02 11:48:57;;;;;;;8.50;3.62;;;;;;;17.84;72.38;100273.17;1700900;84;21578;-60
2021/06/02 11:51:33;;;;;;;6.35;3.15;;;;;;;17.74;73.30;100271.31;1701756;84;21203;-63
2021/06/02 11:54:06;;;;;;;17.52;11.95;;;;;;;17.65;73.77;100275.02;1700989;84;21196;-62
2021/06/02 11:56:40;;;;;;;14.85;8.20;;;;;;;17.57;74.49;100269.83;1701419;83;21307;-61
2021/06/02 11:59:18;;;;;;;6.58;3.15;;;;;;;17.47;75.28;100267.91;1700201;84;22149;-68
2021/06/02 12:01:53;;;;;;;5.12;3.05;;;;;;;17.37;75.66;100264.19;1677837;83;21315;-61
2021/06/02 12:04:29;;;;;;;4.50;2.67;;;;;;;17.30;76.04;100253.17;1700062;84;21378;-61
2021/06/02 12:07:28;;;;;;;7.70;2.90;;;;;;;17.24;76.46;100269.78;1701531;84;21454;-62
2021/06/02 12:10:04;;;;;;;9.33;2.62;;;;;;;17.18;76.76;100267.33;1701798;84;21196;-62
2021/06/02 12:12:44;;;;;;;4.47;2.65;;;;;;;17.12;76.87;100264.59;1700147;83;21677;-61
2021/06/02 12:15:19;;;;;;;6.15;3.05;;;;;;;17.06;77.13;100271.89;1682076;84;21306;-61
2021/06/02 12:17:55;;;;;;;4.03;2.67;;;;;;;16.96;77.75;100262.88;1676667;83;21255;-59
2021/06/02 12:20:32;;;;;;;5.47;2.70;;;;;;;16.91;77.90;100261.78;1714583;83;21427;-61
2021/06/02 12:23:15;;;;;;;5.47;2.50;;;;;;;16.87;78.05;100273.68;1714691;83;21211;-61
2021/06/02 12:25:51;;;;;;;5.78;2.33;;;;;;;16.81;78.07;100272.06;1715345;83;21890;-63
2021/06/02 12:28:26;;;;;;;4.97;2.42;;;;;;;16.76;78.16;100282.37;1714405;83;21222;-63
2021/06/02 12:31:05;;;;;;;6.03;2.95;;;;;;;16.70;78.34;100280.90;1715684;83;21251;-61
2021/06/02 12:33:45;;;;;;;5.03;2.58;;;;;;;16.67;78.57;100286.03;1714245;83;22044;-59
2021/06/02 12:36:33;;;;;;;3.35;2.27;;;;;;;16.65;78.90;100281.42;1715144;83;21869;-60
2021/06/02 12:39:12;;;;;;;4.55;2.58;;;;;;;16.63;79.44;100282.10;1713656;83;22042;-60
2021/06/02 12:41:55;;;;;;;7.45;2.47;;;;;;;16.59;79.60;100278.17;1713102;83;21200;-62
2021/06/02 12:45:00;;;;;;;3.60;2.45;;;;;;;16.60;79.97;100277.65;1687716;83;21305;-59
2021/06/02 12:47:49;;;;;;;3.60;2.30;;;;;;;16.59;80.13;100270.73;1713341;83;21176;-61
2021/06/02 12:50:47;;;;;;;7.00;2.10;;;;;;;16.57;80.17;100276.20;1714950;83;21309;-60
2021/06/02 12:53:22;;;;;;;7.92;2.20;;;;;;;16.54;79.70;100268.61;1714784;83;21227;-61
2021/06/02 12:56:01;;;;;;;4.83;1.55;;;;;;;16.44;79.16;100261.86;1713339;82;21275;-64
2021/06/02 12:58:36;;;;;;;2.85;2.27;;;;;;;16.33;78.87;100278.11;1714187;83;21527;-64
2021/06/02 13:01:15;;;;;;;4.78;1.90;;;;;;;16.25;79.00;100278.13;1687485;83;21306;-61
2021/06/02 13:03:54;;;;;;;4.58;2.25;;;;;;;16.15;79.04;100272.56;1714535;83;21279;-63
2021/06/02 13:06:31;;;;;;;4.33;2.02;;;;;;;16.04;79.51;100278.23;1715252;83;21172;-69
2021/06/02 13:09:10;;;;;;;4.33;2.08;;;;;;;15.95;80.03;100277.11;1713412;83;21914;-61
2021/06/02 13:11:46;;;;;;;3.05;1.98;;;;;;;15.85;80.44;100272.02;1715102;83;21204;-65
2021/06/02 13:18:33;;;;;;;4.90;2.00;;;;;;;15.75;81.19;100263.95;1709101;83;21275;-58
2021/06/02 13:21:20;;;;;;;3.02;2.08;;;;;;;15.72;81.65;100265.11;1681581;84;21260;-61
2021/06/02 13:24:17;;;;;;;7.25;2.05;;;;;;;15.77;81.87;100268.55;1681469;84;22010;-58
2021/06/02 13:26:58;;;;;;;7.85;1.70;;;;;;;15.79;81.99;100268.72;1701712;84;21239;-60
2021/06/02 13:29:39;;;;;;;2.90;1.85;;;;;;;15.79;82.08;100264.75;1700922;84;21219;-66
2021/06/02 13:32:17;;;;;;;6.15;2.10;;;;;;;15.83;82.31;100273.17;1682691;84;21307;-70
2021/06/02 13:34:53;;;;;;;3.10;1.80;;;;;;;15.86;82.27;100267.05;1700307;83;21200;-62
2021/06/02 13:37:32;;;;;;;3.05;2.08;;;;;;;15.86;82.10;100270.17;1701646;84;22127;-63
2021/06/02 13:40:21;;;;;;;3.72;1.55;;;;;;;15.87;82.13;100270.02;1700607;84;22200;-66
2021/06/02 13:43:20;;;;;;;6.22;1.82;;;;;;;15.89;81.87;100264.56;1700847;83;21196;-68
2021/06/02 13:45:55;;;;;;;4.80;2.00;;;;;;;15.89;81.67;100262.75;1700723;84;22122;-61
2021/06/02 13:52:30;;;;;;;4.60;1.87;;;;;;;15.94;81.40;100260.43;1702083;84;21144;-63
2021/06/02 13:59:25;;;;;;;3.45;1.95;;;;;;;16.00;81.34;100257.61;1701323;84;21275;-61
2021/06/02 14:02:08;;;;;;;7.35;2.12;;;;;;;16.06;81.48;100255.11;1700343;84;21232;-60
2021/06/02 14:04:46;;;;;;;5.55;1.90;;;;;;;16.11;81.29;100244.03;1681319;84;21311;-61